Time,TemperatureF,DewpointF,PressureIn,WindDirection,WindDirectionDegrees,WindSpeedMPH,WindSpeedGustMPH,Humidity,HourlyPrecipIn,Conditions,Clouds,dailyrainin,SoftwareType,DateUTC
2013-05-22 00:04:00,70.7,63.0,29.71,SE,145,0.0,6.0,77,0.00,,,0.00,weatherlink.com 1.10,2013-05-22 04:04:00,
2013-05-22 00:19:00,70.3,63.0,29.72,SE,142,0.0,4.0,78,0.00,,,0.00,weatherlink.com 1.10,2013-05-22 04:19:00,
2013-05-22 00:34:00,70.2,63.0,29.72,SSE,163,2.0,6.0,78,0.00,,,0.00,weatherlink.com 1.10,2013-05-22 04:34:00,
2013-05-22 00:49:00,70.1,63.0,29.71,SSE,153,2.0,6.0,78,0.00,,,0.00,weatherlink.com 1.10,2013-05-22 04:49:00,
2013-05-22 01:04:00,70.0,63.0,29.71,SE,145,2.0,5.0,79,0.00,,,0.00,weatherlink.com 1.10,2013-05-22 05:04:00,
2013-05-22 01:19:00,70.1,63.0,29.70,South,172,3.0,8.0,79,0.00,,,0.00,weatherlink.com 1.10,2013-05-22 05:19:00,
2013-05-22 01:34:00,70.1,63.0,29.70,South,170,3.0,5.0,79,0.00,,,0.00,weatherlink.com 1.10,2013-05-22 05:34:00,
2013-05-22 01:49:00,69.7,64.0,29.70,ESE,122,0.0,4.0,81,0.00,,,0.00,weatherlink.com 1.10,2013-05-22 05:49:00,
2013-05-22 02:04:00,69.5,64.0,29.70,SE,136,4.0,7.0,82,0.00,,,0.00,weatherlink.com 1.10,2013-05-22 06:04:00,
2013-05-22 02:19:00,69.9,65.0,29.70,SSW,203,4.0,6.0,83,0.00,,,0.00,weatherlink.com 1.10,2013-05-22 06:19:00,
2013-05-22 02:34:00,70.1,65.0,29.70,NE,53,0.0,10.0,84,0.00,,,0.00,weatherlink.com 1.10,2013-05-22 06:34:00,
2013-05-22 02:49:00,69.6,65.0,29.70,SE,128,4.0,14.0,86,0.00,,,0.00,weatherlink.com 1.10,2013-05-22 06:49:00,
2013-05-22 03:05:00,68.5,66.0,29.69,SSW,198,4.0,9.0,90,0.01,,,0.01,weatherlink.com 1.10,2013-05-22 07:05:00,
2013-05-22 03:20:00,68.3,65.0,29.68,SE,142,0.0,5.0,90,0.01,,,0.01,weatherlink.com 1.10,2013-05-22 07:20:00,
2013-05-22 03:35:00,68.2,65.0,29.68,SW,215,3.0,12.0,90,0.01,,,0.01,weatherlink.com 1.10,2013-05-22 07:35:00,
2013-05-22 03:50:00,67.6,65.0,29.68,ESE,104,4.0,11.0,90,0.01,,,0.01,weatherlink.com 1.10,2013-05-22 07:50:00,
2013-05-22 04:05:00,67.5,65.0,29.69,South,181,2.0,6.0,90,0.00,,,0.01,weatherlink.com 1.10,2013-05-22 08:05:00,
2013-05-22 04:20:00,67.4,65.0,29.68,SE,131,5.0,9.0,90,0.00,,,0.01,weatherlink.com 1.10,2013-05-22 08:20:00,
2013-05-22 04:35:00,67.3,64.0,29.68,SE,145,4.0,10.0,90,0.00,,,0.01,weatherlink.com 1.10,2013-05-22 08:35:00,
2013-05-22 04:50:00,67.3,64.0,29.68,SE,142,2.0,7.0,90,0.00,,,0.01,weatherlink.com 1.10,2013-05-22 08:50:00,
2013-05-22 05:05:00,67.1,64.0,29.68,South,186,2.0,9.0,89,0.00,,,0.01,weatherlink.com 1.10,2013-05-22 09:05:00,
2013-05-22 05:20:00,67.0,64.0,29.67,SSW,205,4.0,9.0,89,0.00,,,0.01,weatherlink.com 1.10,2013-05-22 09:20:00,
2013-05-22 05:35:00,66.7,63.0,29.68,SE,143,5.0,10.0,89,0.00,,,0.01,weatherlink.com 1.10,2013-05-22 09:35:00,
2013-05-22 05:50:00,66.6,63.0,29.68,SE,139,1.0,7.0,89,0.00,,,0.01,weatherlink.com 1.10,2013-05-22 09:50:00,
2013-05-22 06:05:00,66.5,63.0,29.68,WSW,240,3.0,11.0,89,0.00,,,0.01,weatherlink.com 1.10,2013-05-22 10:05:00,
2013-05-22 06:20:00,66.6,63.0,29.69,SE,128,3.0,5.0,89,0.00,,,0.01,weatherlink.com 1.10,2013-05-22 10:20:00,
2013-05-22 06:35:00,66.7,63.0,29.69,SSE,155,7.0,11.0,89,0.00,,,0.01,weatherlink.com 1.10,2013-05-22 10:35:00,
2013-05-22 06:50:00,66.8,63.0,29.70,SE,142,3.0,14.0,88,0.00,,,0.01,weatherlink.com 1.10,2013-05-22 10:50:00,
2013-05-22 07:05:00,66.8,63.0,29.69,SSE,167,2.0,10.0,88,0.00,,,0.01,weatherlink.com 1.10,2013-05-22 11:05:00,
2013-05-22 07:20:00,66.9,63.0,29.69,South,188,3.0,8.0,88,0.00,,,0.01,weatherlink.com 1.10,2013-05-22 11:20:00,
2013-05-22 07:35:00,67.0,63.0,29.69,SSE,150,2.0,5.0,88,0.00,,,0.01,weatherlink.com 1.10,2013-05-22 11:35:00,
2013-05-22 07:50:00,67.1,63.0,29.68,SSE,156,3.0,7.0,87,0.00,,,0.01,weatherlink.com 1.10,2013-05-22 11:50:00,
2013-05-22 07:56:00,67.3,63.3,29.68,SSE,148,5.0,5.0,87,0.00,,,0.01,VWS V14.01,2013-05-22 11:56:00,
2013-05-22 08:00:00,67.5,63.5,29.68,SE,142,5.0,5.0,87,0.01,,,0.01,VWS V14.01,2013-05-22 12:00:00,
2013-05-22 08:01:00,67.6,63.3,29.68,NNE,30,1.0,8.0,86,0.00,,,0.01,VWS V14.01,2013-05-22 12:01:00,
2013-05-22 08:06:00,67.6,63.0,29.68,SSW,210,2.0,9.0,86,0.00,,,0.01,weatherlink.com 1.10,2013-05-22 12:06:00,
2013-05-22 08:11:00,67.6,63.3,29.68,WSW,256,0.0,8.0,86,0.00,,,0.01,VWS V14.01,2013-05-22 12:11:00,
2013-05-22 08:16:00,67.7,63.4,29.69,SSW,212,1.0,1.0,86,0.00,,,0.01,VWS V14.01,2013-05-22 12:16:00,
2013-05-22 08:21:00,67.6,63.3,29.69,WNW,283,5.0,7.0,86,0.00,,,0.01,VWS V14.01,2013-05-22 12:21:00,
2013-05-22 08:26:00,67.5,63.2,29.69,SSW,197,1.0,7.0,86,0.00,,,0.01,VWS V14.01,2013-05-22 12:26:00,
2013-05-22 08:30:00,67.5,63.2,29.69,SSE,154,2.0,7.0,86,0.00,,,0.01,VWS V14.01,2013-05-22 12:30:00,
2013-05-22 08:31:00,67.5,63.2,29.69,South,172,1.0,7.0,86,0.00,,,0.01,VWS V14.01,2013-05-22 12:31:00,
2013-05-22 08:36:00,67.6,63.3,29.69,WSW,245,0.0,9.0,86,0.00,,,0.01,VWS V14.01,2013-05-22 12:36:00,
2013-05-22 08:41:00,67.7,63.0,29.68,SSE,150,2.0,9.0,85,0.00,,,0.01,VWS V14.01,2013-05-22 12:41:00,
2013-05-22 08:49:00,67.9,63.2,29.68,SE,145,1.0,1.0,85,0.00,,,0.01,VWS V14.01,2013-05-22 12:49:00,
2013-05-22 08:55:00,68.3,63.6,29.68,West,276,0.0,0.0,85,0.00,,,0.01,VWS V14.01,2013-05-22 12:55:00,
2013-05-22 09:00:00,68.4,63.4,29.68,SSW,211,3.0,7.0,84,0.00,,,0.01,VWS V14.01,2013-05-22 13:00:00,
2013-05-22 09:05:00,68.3,63.3,29.68,SSW,209,1.0,7.0,84,0.00,,,0.01,VWS V14.01,2013-05-22 13:05:00,
2013-05-22 09:10:00,68.3,63.3,29.67,SE,143,4.0,10.0,84,0.00,,,0.01,VWS V14.01,2013-05-22 13:10:00,
2013-05-22 09:15:00,68.3,63.3,29.68,South,169,2.0,10.0,84,0.00,,,0.01,VWS V14.01,2013-05-22 13:15:00,
2013-05-22 09:20:00,68.3,63.3,29.67,SE,139,7.0,10.0,84,0.00,,,0.01,VWS V14.01,2013-05-22 13:20:00,
2013-05-22 09:27:00,68.1,63.4,29.67,South,179,2.0,2.0,85,0.00,,,0.01,VWS V14.01,2013-05-22 13:27:00,
2013-05-22 09:32:00,67.9,63.6,29.67,SSE,155,2.0,5.0,86,0.00,,,0.01,VWS V14.01,2013-05-22 13:32:00,
2013-05-22 09:37:00,67.7,63.4,29.67,SE,139,4.0,8.0,86,0.00,,,0.01,VWS V14.01,2013-05-22 13:37:00,
2013-05-22 09:42:00,67.7,63.4,29.66,SSE,165,2.0,8.0,86,0.00,,,0.01,VWS V14.01,2013-05-22 13:42:00,
2013-05-22 09:47:00,67.8,63.5,29.66,SE,143,3.0,8.0,86,0.00,,,0.01,VWS V14.01,2013-05-22 13:47:00,
2013-05-22 09:52:00,67.8,63.5,29.66,SE,136,6.0,8.0,86,0.00,,,0.01,VWS V14.01,2013-05-22 13:52:00,
2013-05-22 09:57:00,67.8,63.5,29.66,SSE,165,2.0,6.0,86,0.00,,,0.01,VWS V14.01,2013-05-22 13:57:00,
2013-05-22 10:00:00,67.8,63.5,29.66,SE,141,1.0,8.0,86,0.00,,,0.01,VWS V14.01,2013-05-22 14:00:00,
2013-05-22 10:02:00,67.9,63.6,29.66,SSE,167,4.0,9.0,86,0.00,,,0.01,VWS V14.01,2013-05-22 14:02:00,
2013-05-22 10:09:00,67.9,63.6,29.66,SE,134,4.0,4.0,86,0.00,,,0.01,VWS V14.01,2013-05-22 14:09:00,
2013-05-22 10:14:00,68.3,63.6,29.66,South,184,7.0,8.0,85,0.00,,,0.01,VWS V14.01,2013-05-22 14:14:00,
2013-05-22 10:19:00,68.7,64.0,29.67,SSW,193,1.0,8.0,85,0.00,,,0.01,VWS V14.01,2013-05-22 14:19:00,
2013-05-22 10:24:00,68.9,63.5,29.67,SSW,195,5.0,9.0,83,0.00,,,0.01,VWS V14.01,2013-05-22 14:24:00,
2013-05-22 10:29:00,68.9,63.5,29.67,SSE,159,5.0,5.0,83,0.00,,,0.01,VWS V14.01,2013-05-22 14:29:00,
2013-05-22 10:30:00,68.8,63.1,29.66,South,181,3.0,10.0,82,0.00,,,0.01,VWS V14.01,2013-05-22 14:30:00,
2013-05-22 10:34:00,69.1,63.0,29.67,ESE,104,9.0,9.0,81,0.00,,,0.01,VWS V14.01,2013-05-22 14:34:00,
2013-05-22 10:39:00,69.3,63.6,29.67,SW,231,4.0,9.0,82,0.00,,,0.01,VWS V14.01,2013-05-22 14:39:00,
2013-05-22 10:44:00,69.7,63.3,29.68,SSE,162,1.0,9.0,80,0.00,,,0.01,VWS V14.01,2013-05-22 14:44:00,
2013-05-22 10:49:00,70.4,63.6,29.68,SSW,197,2.0,11.0,79,0.00,,,0.01,VWS V14.01,2013-05-22 14:49:00,
2013-05-22 10:54:00,71.3,64.1,29.68,South,184,3.0,11.0,78,0.00,,,0.01,VWS V14.01,2013-05-22 14:54:00,
2013-05-22 10:59:00,72.2,63.5,29.68,SW,231,1.0,12.0,74,0.00,,,0.01,VWS V14.01,2013-05-22 14:59:00,
2013-05-22 11:00:00,71.9,63.9,29.68,SSE,165,11.0,11.0,76,0.00,,,0.01,VWS V14.01,2013-05-22 15:00:00,
2013-05-22 11:04:00,72.6,63.5,29.68,WNW,283,1.0,17.0,73,0.00,,,0.01,VWS V14.01,2013-05-22 15:04:00,
2013-05-22 11:09:00,72.5,63.4,29.68,SSW,208,10.0,17.0,73,0.00,,,0.01,VWS V14.01,2013-05-22 15:09:00,
2013-05-22 11:14:00,72.6,64.2,29.68,SSW,203,9.0,17.0,75,0.00,,,0.01,VWS V14.01,2013-05-22 15:14:00,
2013-05-22 11:19:00,72.6,63.8,29.68,SSE,155,7.0,17.0,74,0.00,,,0.01,VWS V14.01,2013-05-22 15:19:00,
2013-05-22 11:24:00,73.0,63.8,29.68,West,276,2.0,17.0,73,0.00,,,0.01,VWS V14.01,2013-05-22 15:24:00,
2013-05-22 11:29:00,73.2,64.0,29.68,South,188,9.0,9.0,73,0.00,,,0.01,VWS V14.01,2013-05-22 15:29:00,
2013-05-22 11:30:00,73.1,63.9,29.68,South,188,1.0,17.0,73,0.00,,,0.01,VWS V14.01,2013-05-22 15:30:00,
2013-05-22 11:34:00,73.5,63.9,29.68,SSW,195,8.0,11.0,72,0.00,,,0.01,VWS V14.01,2013-05-22 15:34:00,
2013-05-22 11:39:00,73.9,63.9,29.69,WSW,243,7.0,13.0,71,0.00,,,0.01,VWS V14.01,2013-05-22 15:39:00,
2013-05-22 11:44:00,74.5,63.7,29.68,SSW,193,6.0,13.0,69,0.00,,,0.01,VWS V14.01,2013-05-22 15:44:00,
2013-05-22 11:49:00,74.3,63.9,29.68,South,180,3.0,13.0,70,0.00,,,0.01,VWS V14.01,2013-05-22 15:49:00,
2013-05-22 11:54:00,73.6,63.2,29.68,SSE,149,3.0,14.0,70,0.00,,,0.01,VWS V14.01,2013-05-22 15:54:00,
2013-05-22 11:59:00,73.3,63.3,29.68,SSW,197,2.0,5.0,71,0.00,,,0.01,VWS V14.01,2013-05-22 15:59:00,
2013-05-22 12:00:00,73.4,63.0,29.68,SSW,198,1.0,15.0,70,0.00,,,0.01,VWS V14.01,2013-05-22 16:00:00,
2013-05-22 12:04:00,73.2,63.2,29.68,West,264,5.0,8.0,71,0.00,,,0.01,VWS V14.01,2013-05-22 16:04:00,
2013-05-22 12:09:00,72.9,63.0,29.68,SE,140,1.0,11.0,71,0.00,,,0.01,VWS V14.01,2013-05-22 16:09:00,
2013-05-22 12:14:00,72.9,63.0,29.68,South,176,4.0,12.0,71,0.00,,,0.01,VWS V14.01,2013-05-22 16:14:00,
2013-05-22 12:19:00,73.1,63.2,29.68,SW,217,7.0,15.0,71,0.00,,,0.01,VWS V14.01,2013-05-22 16:19:00,
2013-05-22 12:24:00,72.9,62.5,29.68,SSW,204,4.0,15.0,70,0.00,,,0.01,VWS V14.01,2013-05-22 16:24:00,
2013-05-22 12:29:00,72.9,62.1,29.68,SSW,212,3.0,11.0,69,0.00,,,0.01,VWS V14.01,2013-05-22 16:29:00,
2013-05-22 12:30:00,72.9,62.1,29.68,ESE,123,6.0,16.0,69,0.00,,,0.01,VWS V14.01,2013-05-22 16:30:00,
2013-05-22 12:34:00,72.8,62.5,29.68,WNW,283,0.0,11.0,70,0.00,,,0.01,VWS V14.01,2013-05-22 16:34:00,
2013-05-22 12:39:00,72.8,62.5,29.68,ESE,117,7.0,11.0,70,0.00,,,0.01,VWS V14.01,2013-05-22 16:39:00,
2013-05-22 12:44:00,72.8,62.5,29.68,WSW,256,2.0,16.0,70,0.00,,,0.01,VWS V14.01,2013-05-22 16:44:00,
2013-05-22 12:49:00,72.6,62.3,29.68,SSW,207,3.0,16.0,70,0.00,,,0.01,VWS V14.01,2013-05-22 16:49:00,
2013-05-22 12:54:00,72.4,62.5,29.67,South,191,5.0,16.0,71,0.00,,,0.01,VWS V14.01,2013-05-22 16:54:00,
2013-05-22 12:59:00,72.4,62.5,29.67,WNW,292,3.0,3.0,71,0.00,,,0.01,VWS V14.01,2013-05-22 16:59:00,
2013-05-22 13:00:00,72.4,62.5,29.67,SE,145,3.0,16.0,71,0.00,,,0.01,VWS V14.01,2013-05-22 17:00:00,
2013-05-22 13:04:00,72.3,62.4,29.67,NNW,338,2.0,12.0,71,0.00,,,0.01,VWS V14.01,2013-05-22 17:04:00,
2013-05-22 13:09:00,72.2,62.7,29.67,South,179,2.0,12.0,72,0.00,,,0.01,VWS V14.01,2013-05-22 17:09:00,
2013-05-22 13:14:00,71.9,63.2,29.68,SSW,200,3.0,13.0,74,0.01,,,0.02,VWS V14.01,2013-05-22 17:14:00,
2013-05-22 13:18:00,70.0,63.5,29.69,South,177,3.0,13.0,80,0.02,,,0.03,VWS V14.01,2013-05-22 17:18:00,
2013-05-22 13:23:00,68.3,63.3,29.69,SSW,207,1.0,13.0,84,0.04,,,0.05,VWS V14.01,2013-05-22 17:23:00,
2013-05-22 13:28:00,67.0,63.0,29.69,South,184,2.0,7.0,87,0.08,,,0.09,VWS V14.01,2013-05-22 17:28:00,
2013-05-22 13:30:00,67.5,63.5,29.69,SSE,156,2.0,13.0,87,0.06,,,0.07,VWS V14.01,2013-05-22 17:30:00,
2013-05-22 13:33:00,66.3,63.0,29.69,SSW,212,1.0,8.0,89,0.08,,,0.09,VWS V14.01,2013-05-22 17:33:00,
2013-05-22 13:38:00,66.2,63.5,29.69,SSE,149,1.0,8.0,91,0.08,,,0.09,VWS V14.01,2013-05-22 17:38:00,
2013-05-22 13:43:00,65.7,62.4,29.69,SW,232,2.0,8.0,89,0.08,,,0.09,VWS V14.01,2013-05-22 17:43:00,
2013-05-22 13:48:00,65.2,62.2,29.69,WNW,284,1.0,9.0,90,0.09,,,0.10,VWS V14.01,2013-05-22 17:48:00,
2013-05-22 13:53:00,64.8,61.5,29.69,NNE,27,0.0,9.0,89,0.09,,,0.10,VWS V14.01,2013-05-22 17:53:00,
2013-05-22 13:58:00,64.6,61.6,29.68,SSW,213,1.0,5.0,90,0.09,,,0.10,VWS V14.01,2013-05-22 17:58:00,
2013-05-22 14:00:00,64.7,61.7,29.68,West,278,3.0,9.0,90,0.09,,,0.10,VWS V14.01,2013-05-22 18:00:00,
2013-05-22 14:03:00,65.1,62.4,29.68,SE,146,2.0,8.0,91,0.09,,,0.10,VWS V14.01,2013-05-22 18:03:00,
2013-05-22 14:08:00,65.8,62.8,29.68,NW,325,1.0,9.0,90,0.09,,,0.10,VWS V14.01,2013-05-22 18:08:00,
2013-05-22 14:13:00,66.6,63.3,29.67,SSW,205,2.0,10.0,89,0.09,,,0.10,VWS V14.01,2013-05-22 18:13:00,
2013-05-22 14:18:00,67.9,64.2,29.67,SSE,165,2.0,10.0,88,0.09,,,0.10,VWS V14.01,2013-05-22 18:18:00,
2013-05-22 14:23:00,69.0,64.6,29.67,SSE,168,6.0,10.0,86,0.09,,,0.10,VWS V14.01,2013-05-22 18:23:00,
2013-05-22 14:28:00,69.7,63.6,29.67,South,172,6.0,11.0,81,0.03,,,0.10,VWS V14.01,2013-05-22 18:28:00,
2013-05-22 14:30:00,69.5,63.4,29.67,South,176,10.0,12.0,81,0.09,,,0.10,VWS V14.01,2013-05-22 18:30:00,
2013-05-22 14:33:00,70.7,63.9,29.67,WNW,295,3.0,12.0,79,0.03,,,0.10,VWS V14.01,2013-05-22 18:33:00,
2013-05-22 14:38:00,71.7,64.5,29.67,SE,134,16.0,16.0,78,0.03,,,0.10,VWS V14.01,2013-05-22 18:38:00,
2013-05-22 14:43:00,72.1,64.5,29.67,SSE,163,2.0,17.0,77,0.03,,,0.10,VWS V14.01,2013-05-22 18:43:00,
2013-05-22 14:48:00,72.8,65.6,29.67,SE,145,6.0,17.0,78,0.03,,,0.10,VWS V14.01,2013-05-22 18:48:00,
2013-05-22 14:53:00,73.0,64.2,29.67,SW,224,7.0,17.0,74,0.03,,,0.10,VWS V14.01,2013-05-22 18:53:00,
2013-05-22 14:58:00,73.2,64.8,29.67,SSE,166,0.0,11.0,75,0.00,,,0.10,VWS V14.01,2013-05-22 18:58:00,
2013-05-22 15:00:00,73.1,64.7,29.67,East,79,1.0,17.0,75,0.03,,,0.10,VWS V14.01,2013-05-22 19:00:00,
2013-05-22 15:03:00,73.4,64.2,29.67,South,184,4.0,16.0,73,0.00,,,0.10,VWS V14.01,2013-05-22 19:03:00,
2013-05-22 15:08:00,73.2,64.0,29.67,SSW,212,2.0,16.0,73,0.00,,,0.10,VWS V14.01,2013-05-22 19:08:00,
2013-05-22 15:13:00,73.6,64.0,29.67,SW,221,9.0,16.0,72,0.00,,,0.10,VWS V14.01,2013-05-22 19:13:00,
2013-05-22 15:18:00,73.4,63.4,29.67,SW,222,13.0,16.0,71,0.00,,,0.10,VWS V14.01,2013-05-22 19:18:00,
2013-05-22 15:23:00,73.4,63.0,29.67,SSW,197,4.0,16.0,70,0.00,,,0.10,VWS V14.01,2013-05-22 19:23:00,
2013-05-22 15:28:00,73.2,62.4,29.67,South,173,18.0,18.0,69,0.00,,,0.10,VWS V14.01,2013-05-22 19:28:00,
2013-05-22 15:30:00,73.3,62.9,29.67,SE,142,4.0,16.0,70,0.00,,,0.10,VWS V14.01,2013-05-22 19:30:00,
2013-05-22 15:33:00,72.8,62.5,29.67,SSE,165,4.0,18.0,70,0.00,,,0.10,VWS V14.01,2013-05-22 19:33:00,
2013-05-22 15:38:00,73.1,62.7,29.67,SE,140,7.0,18.0,70,0.00,,,0.10,VWS V14.01,2013-05-22 19:38:00,
2013-05-22 15:43:00,73.7,62.9,29.67,SSE,157,3.0,18.0,69,0.00,,,0.10,VWS V14.01,2013-05-22 19:43:00,
2013-05-22 15:48:00,74.8,64.0,29.66,SSW,194,16.0,18.0,69,0.00,,,0.10,VWS V14.01,2013-05-22 19:48:00,
2013-05-22 15:53:00,75.4,64.1,29.66,SSW,194,7.0,18.0,68,0.00,,,0.10,VWS V14.01,2013-05-22 19:53:00,
2013-05-22 15:58:00,75.8,63.6,29.66,ESE,123,7.0,9.0,66,0.00,,,0.10,VWS V14.01,2013-05-22 19:58:00,
2013-05-22 16:00:00,75.8,64.1,29.66,SE,142,6.0,18.0,67,0.00,,,0.10,VWS V14.01,2013-05-22 20:00:00,
2013-05-22 16:03:00,76.0,64.3,29.66,SE,142,5.0,10.0,67,0.00,,,0.10,VWS V14.01,2013-05-22 20:03:00,
2013-05-22 16:08:00,76.2,64.0,29.66,SSW,203,3.0,10.0,66,0.00,,,0.10,VWS V14.01,2013-05-22 20:08:00,
2013-05-22 16:13:00,75.9,63.7,29.66,SSE,149,3.0,7.0,66,0.00,,,0.10,VWS V14.01,2013-05-22 20:13:00,
2013-05-22 16:20:00,75.8,63.6,29.65,ENE,77,1.0,1.0,66,0.00,,,0.10,VWS V14.01,2013-05-22 20:20:00,
2013-05-22 16:25:00,76.0,64.3,29.65,SE,142,1.0,8.0,67,0.00,,,0.10,VWS V14.01,2013-05-22 20:25:00,
2013-05-22 16:30:00,75.9,62.9,29.65,SSW,198,2.0,13.0,64,0.00,,,0.10,VWS V14.01,2013-05-22 20:30:00,
2013-05-22 16:35:00,74.9,61.9,29.66,West,263,5.0,13.0,64,0.00,,,0.10,VWS V14.01,2013-05-22 20:35:00,
2013-05-22 16:40:00,73.8,62.2,29.66,SE,141,3.0,4.0,67,0.00,,,0.10,VWS V14.01,2013-05-22 20:40:00,
2013-05-22 16:45:00,73.5,62.3,29.66,WSW,248,2.0,13.0,68,0.00,,,0.10,VWS V14.01,2013-05-22 20:45:00,
2013-05-22 16:50:00,73.3,61.3,29.66,WSW,242,4.0,13.0,66,0.00,,,0.10,VWS V14.01,2013-05-22 20:50:00,
2013-05-22 16:55:00,73.4,60.9,29.66,West,263,6.0,13.0,65,0.00,,,0.10,VWS V14.01,2013-05-22 20:55:00,
2013-05-22 17:00:00,73.5,60.2,29.66,WNW,284,5.0,9.0,63,0.00,,,0.10,VWS V14.01,2013-05-22 21:00:00,
2013-05-22 17:07:00,73.4,60.5,29.66,West,271,5.0,5.0,64,0.00,,,0.10,VWS V14.01,2013-05-22 21:07:00,
2013-05-22 17:12:00,72.2,57.6,29.66,West,281,3.0,12.0,60,0.00,,,0.10,VWS V14.01,2013-05-22 21:12:00,
2013-05-22 17:17:00,71.8,57.2,29.67,SE,142,1.0,12.0,60,0.00,,,0.10,VWS V14.01,2013-05-22 21:17:00,
2013-05-22 17:22:00,71.2,56.6,29.67,WSW,247,4.0,4.0,60,0.00,,,0.10,VWS V14.01,2013-05-22 21:22:00,
2013-05-22 17:30:00,70.4,56.8,29.67,SW,217,2.0,2.0,62,0.00,,,0.10,VWS V14.01,2013-05-22 21:30:00,
2013-05-22 17:35:00,69.5,57.2,29.67,WNW,293,2.0,6.0,65,0.00,,,0.10,VWS V14.01,2013-05-22 21:35:00,
2013-05-22 17:40:00,69.0,57.2,29.66,North,1,1.0,6.0,66,0.00,,,0.10,VWS V14.01,2013-05-22 21:40:00,
2013-05-22 17:45:00,68.6,58.0,29.66,West,273,1.0,6.0,69,0.00,,,0.10,VWS V14.01,2013-05-22 21:45:00,
2013-05-22 17:50:00,68.3,58.5,29.66,West,264,0.0,6.0,71,0.00,,,0.10,VWS V14.01,2013-05-22 21:50:00,
2013-05-22 17:55:00,68.2,58.5,29.66,West,260,2.0,6.0,71,0.00,,,0.10,VWS V14.01,2013-05-22 21:55:00,
2013-05-22 18:00:00,68.5,59.1,29.66,West,260,0.0,3.0,72,0.00,,,0.10,VWS V14.01,2013-05-22 22:00:00,
2013-05-22 18:07:00,69.2,59.8,29.66,WSW,238,1.0,1.0,72,0.00,,,0.10,VWS V14.01,2013-05-22 22:07:00,
2013-05-22 18:12:00,70.1,60.3,29.66,WSW,258,1.0,2.0,71,0.00,,,0.10,VWS V14.01,2013-05-22 22:12:00,
2013-05-22 18:17:00,70.7,60.8,29.67,WSW,240,1.0,4.0,71,0.00,,,0.10,VWS V14.01,2013-05-22 22:17:00,
2013-05-22 18:22:00,70.9,60.6,29.67,WNW,285,1.0,4.0,70,0.00,,,0.10,VWS V14.01,2013-05-22 22:22:00,
2013-05-22 18:27:00,70.8,60.5,29.67,West,276,2.0,4.0,70,0.00,,,0.10,VWS V14.01,2013-05-22 22:27:00,
2013-05-22 18:30:00,70.8,60.5,29.66,NNW,335,4.0,5.0,70,0.00,,,0.10,VWS V14.01,2013-05-22 22:30:00,
2013-05-22 18:32:00,71.0,60.7,29.67,WNW,300,1.0,4.0,70,0.00,,,0.10,VWS V14.01,2013-05-22 22:32:00,
2013-05-22 18:37:00,70.9,60.6,29.66,SW,229,1.0,4.0,70,0.00,,,0.10,VWS V14.01,2013-05-22 22:37:00,
2013-05-22 18:42:00,70.7,60.5,29.66,WSW,243,2.0,4.0,70,0.00,,,0.10,VWS V14.01,2013-05-22 22:42:00,
2013-05-22 18:47:00,70.2,60.4,29.67,WNW,302,2.0,4.0,71,0.00,,,0.10,VWS V14.01,2013-05-22 22:47:00,
2013-05-22 18:52:00,69.9,60.5,29.66,WSW,253,0.0,2.0,72,0.00,,,0.10,VWS V14.01,2013-05-22 22:52:00,
2013-05-22 18:57:00,70.0,60.6,29.67,North,6,0.0,0.0,72,0.00,,,0.10,VWS V14.01,2013-05-22 22:57:00,
2013-05-22 19:00:00,70.0,60.6,29.67,West,280,0.0,3.0,72,0.00,,,0.10,VWS V14.01,2013-05-22 23:00:00,
2013-05-22 19:02:00,70.1,60.7,29.66,West,270,1.0,1.0,72,0.00,,,0.10,VWS V14.01,2013-05-22 23:02:00,
2013-05-22 19:07:00,70.1,60.7,29.66,WNW,295,0.0,0.0,72,0.00,,,0.10,VWS V14.01,2013-05-22 23:07:00,
2013-05-22 19:12:00,70.4,61.0,29.67,WSW,245,0.0,2.0,72,0.00,,,0.10,VWS V14.01,2013-05-22 23:12:00,
2013-05-22 19:17:00,70.7,60.8,29.67,WSW,246,0.0,2.0,71,0.00,,,0.10,VWS V14.01,2013-05-22 23:17:00,
2013-05-22 19:22:00,70.9,60.6,29.66,WSW,238,0.0,3.0,70,0.00,,,0.10,VWS V14.01,2013-05-22 23:22:00,
2013-05-22 19:27:00,71.0,61.1,29.67,SSW,203,0.0,2.0,71,0.00,,,0.10,VWS V14.01,2013-05-22 23:27:00,
2013-05-22 19:30:00,71.0,61.1,29.67,SSE,156,2.0,3.0,71,0.00,,,0.10,VWS V14.01,2013-05-22 23:30:00,
2013-05-22 19:32:00,71.0,60.7,29.67,SE,146,0.0,5.0,70,0.00,,,0.10,VWS V14.01,2013-05-22 23:32:00,
2013-05-22 19:37:00,71.1,60.4,29.67,ESE,119,2.0,5.0,69,0.00,,,0.10,VWS V14.01,2013-05-22 23:37:00,
2013-05-22 19:42:00,71.4,60.7,29.67,WNW,291,0.0,5.0,69,0.00,,,0.10,VWS V14.01,2013-05-22 23:42:00,
2013-05-22 19:47:00,71.5,60.8,29.67,WSW,238,0.0,5.0,69,0.00,,,0.10,VWS V14.01,2013-05-22 23:47:00,
2013-05-22 19:52:00,71.7,61.4,29.67,SE,142,1.0,5.0,70,0.00,,,0.10,VWS V14.01,2013-05-22 23:52:00,
2013-05-22 19:57:00,71.6,60.9,29.67,SE,142,0.0,0.0,69,0.00,,,0.10,VWS V14.01,2013-05-22 23:57:00,
2013-05-22 20:00:00,71.6,60.9,29.67,SE,142,0.0,5.0,69,0.00,,,0.10,VWS V14.01,2013-05-23 00:00:00,
2013-05-22 20:02:00,71.3,60.6,29.67,SE,142,0.0,1.0,69,0.00,,,0.10,VWS V14.01,2013-05-23 00:02:00,
2013-05-22 20:07:00,71.0,60.7,29.67,South,183,1.0,1.0,70,0.00,,,0.10,VWS V14.01,2013-05-23 00:07:00,
2013-05-22 20:12:00,70.6,60.8,29.67,SSE,165,0.0,4.0,71,0.00,,,0.10,VWS V14.01,2013-05-23 00:12:00,
2013-05-22 20:17:00,70.2,60.8,29.67,South,173,0.0,4.0,72,0.00,,,0.10,VWS V14.01,2013-05-23 00:17:00,
2013-05-22 20:22:00,69.9,60.9,29.67,South,180,1.0,4.0,73,0.00,,,0.10,VWS V14.01,2013-05-23 00:22:00,
2013-05-22 20:27:00,69.7,61.4,29.68,SE,136,1.0,2.0,75,0.00,,,0.10,VWS V14.01,2013-05-23 00:27:00,
2013-05-22 20:30:00,69.7,61.4,29.68,SSW,198,0.0,4.0,75,0.00,,,0.10,VWS V14.01,2013-05-23 00:30:00,
2013-05-22 20:32:00,69.4,61.5,29.68,West,264,0.0,2.0,76,0.00,,,0.10,VWS V14.01,2013-05-23 00:32:00,
2013-05-22 20:37:00,68.9,62.1,29.69,SSW,195,0.0,2.0,79,0.01,,,0.11,VWS V14.01,2013-05-23 00:37:00,
2013-05-22 20:43:00,68.1,62.4,29.70,SW,230,0.0,0.0,82,0.00,,,0.13,VWS V14.01,2013-05-23 00:43:00,
2013-05-22 20:48:00,66.8,62.2,29.70,SSW,212,3.0,3.0,85,0.00,,,0.24,VWS V14.01,2013-05-23 00:48:00,
2013-05-22 20:53:00,65.3,61.7,29.69,SSW,204,2.0,8.0,88,0.14,,,0.24,VWS V14.01,2013-05-23 00:53:00,
2013-05-22 20:58:00,64.9,61.9,29.69,SSE,159,1.0,2.0,90,0.14,,,0.24,VWS V14.01,2013-05-23 00:58:00,
2013-05-22 21:00:00,65.0,61.7,29.69,SE,142,0.0,8.0,89,0.14,,,0.24,VWS V14.01,2013-05-23 01:00:00,
2013-05-22 21:03:00,64.6,61.9,29.70,SSW,197,3.0,4.0,91,0.14,,,0.24,VWS V14.01,2013-05-23 01:03:00,
2013-05-22 21:08:00,64.4,61.7,29.70,ESE,118,1.0,4.0,91,0.14,,,0.24,VWS V14.01,2013-05-23 01:08:00,
2013-05-22 21:13:00,64.3,61.9,29.70,SE,128,2.0,4.0,92,0.14,,,0.24,VWS V14.01,2013-05-23 01:13:00,
2013-05-22 21:18:00,64.2,61.8,29.70,ESE,123,0.0,4.0,92,0.14,,,0.24,VWS V14.01,2013-05-23 01:18:00,
2013-05-22 21:23:00,64.0,61.6,29.70,SSE,150,0.0,4.0,92,0.14,,,0.24,VWS V14.01,2013-05-23 01:23:00,
2013-05-22 21:28:00,63.9,61.5,29.69,SSE,156,1.0,1.0,92,0.14,,,0.24,VWS V14.01,2013-05-23 01:28:00,
2013-05-22 21:30:00,63.9,61.5,29.69,SSE,153,1.0,4.0,92,0.14,,,0.24,VWS V14.01,2013-05-23 01:30:00,
2013-05-22 21:33:00,63.8,61.7,29.69,SE,145,0.0,1.0,93,0.14,,,0.24,VWS V14.01,2013-05-23 01:33:00,
2013-05-22 21:38:00,63.6,61.5,29.69,SE,145,0.0,1.0,93,0.14,,,0.25,VWS V14.01,2013-05-23 01:38:00,
2013-05-22 21:43:00,63.4,61.3,29.69,SE,145,0.0,1.0,93,0.15,,,0.25,VWS V14.01,2013-05-23 01:43:00,
2013-05-22 21:48:00,63.2,61.5,29.69,SE,145,0.0,1.0,94,0.15,,,0.25,VWS V14.01,2013-05-23 01:48:00,
2013-05-22 21:53:00,63.0,61.2,29.69,SE,145,0.0,1.0,94,0.15,,,0.25,VWS V14.01,2013-05-23 01:53:00,
2013-05-22 21:58:00,62.8,61.0,29.70,SE,145,0.0,0.0,94,0.01,,,0.25,VWS V14.01,2013-05-23 01:58:00,
2013-05-22 22:00:00,62.9,61.2,29.69,SE,145,0.0,1.0,94,0.15,,,0.25,VWS V14.01,2013-05-23 02:00:00,
2013-05-22 22:03:00,62.7,61.0,29.70,SE,145,0.0,0.0,94,0.01,,,0.25,VWS V14.01,2013-05-23 02:03:00,
2013-05-22 22:08:00,62.8,61.3,29.70,SE,132,0.0,0.0,95,0.01,,,0.25,VWS V14.01,2013-05-23 02:08:00,
2013-05-22 22:13:00,62.9,61.5,29.71,SSE,155,0.0,0.0,95,0.01,,,0.25,VWS V14.01,2013-05-23 02:13:00,
2013-05-22 22:18:00,63.0,61.5,29.71,SE,140,0.0,0.0,95,0.01,,,0.25,VWS V14.01,2013-05-23 02:18:00,
2013-05-22 22:23:00,63.0,61.5,29.71,SE,135,0.0,0.0,95,0.01,,,0.25,VWS V14.01,2013-05-23 02:23:00,
2013-05-22 22:28:00,63.0,61.5,29.71,SE,135,0.0,0.0,95,0.01,,,0.25,VWS V14.01,2013-05-23 02:28:00,
2013-05-22 22:33:00,63.1,61.7,29.71,SE,145,0.0,0.0,95,0.01,,,0.25,VWS V14.01,2013-05-23 02:33:00,
2013-05-22 22:38:00,63.2,61.8,29.72,SE,145,0.0,0.0,95,0.01,,,0.25,VWS V14.01,2013-05-23 02:38:00,
2013-05-22 22:43:00,63.2,61.8,29.71,South,177,0.0,0.0,95,0.01,,,0.25,VWS V14.01,2013-05-23 02:43:00,
2013-05-22 22:48:00,63.1,61.7,29.72,South,177,0.0,0.0,95,0.01,,,0.25,VWS V14.01,2013-05-23 02:48:00,
2013-05-22 22:53:00,63.0,61.5,29.72,SSE,158,0.0,0.0,95,0.01,,,0.25,VWS V14.01,2013-05-23 02:53:00,
2013-05-22 22:58:00,63.0,61.5,29.72,SSE,152,0.0,0.0,95,0.00,,,0.25,VWS V14.01,2013-05-23 02:58:00,
2013-05-22 23:00:00,63.0,61.5,29.72,SSE,152,0.0,0.0,95,0.01,,,0.25,VWS V14.01,2013-05-23 03:00:00,
2013-05-22 23:03:00,63.0,61.5,29.72,SE,143,0.0,0.0,95,0.00,,,0.25,VWS V14.01,2013-05-23 03:03:00,
2013-05-22 23:11:00,63.0,61.5,29.72,SE,145,0.0,0.0,95,0.00,,,0.25,VWS V14.01,2013-05-23 03:11:00,
2013-05-22 23:16:00,62.8,61.3,29.72,SE,145,0.0,0.0,95,0.00,,,0.25,VWS V14.01,2013-05-23 03:16:00,
2013-05-22 23:21:00,62.6,61.2,29.73,SE,145,0.0,0.0,95,0.00,,,0.25,VWS V14.01,2013-05-23 03:21:00,
2013-05-22 23:26:00,62.5,61.0,29.73,SSW,207,0.0,1.0,95,0.00,,,0.25,VWS V14.01,2013-05-23 03:26:00,
2013-05-22 23:30:00,62.5,61.0,29.73,SSW,207,0.0,1.0,95,0.00,,,0.25,VWS V14.01,2013-05-23 03:30:00,
2013-05-22 23:31:00,62.3,60.8,29.73,SSW,195,0.0,1.0,95,0.00,,,0.25,VWS V14.01,2013-05-23 03:31:00,
2013-05-22 23:36:00,62.2,60.8,29.73,SW,224,0.0,1.0,95,0.00,,,0.25,VWS V14.01,2013-05-23 03:36:00,
2013-05-22 23:41:00,62.0,60.6,29.73,SE,129,0.0,1.0,95,0.00,,,0.25,VWS V14.01,2013-05-23 03:41:00,
2013-05-22 23:46:00,61.9,60.5,29.73,SW,232,0.0,1.0,95,0.00,,,0.25,VWS V14.01,2013-05-23 03:46:00,
2013-05-22 23:53:00,61.8,60.4,29.73,SW,232,0.0,0.0,95,0.00,,,0.25,VWS V14.01,2013-05-23 03:53:00,
2013-05-22 23:58:00,61.7,60.3,29.73,SSW,201,0.0,1.0,95,0.00,,,0.00,VWS V14.01,2013-05-23 03:58:00,